createdAt,value
2023-05-12T00:00:22.834Z,98355.38
2023-05-12T00:02:50.022Z,98355.19
2023-05-12T00:05:17.232Z,98358.63
2023-05-12T00:07:44.363Z,98353.03
2023-05-12T00:10:11.773Z,98353.03
2023-05-12T00:12:38.857Z,98351.44
2023-05-12T00:15:06.589Z,98358.38
2023-05-12T00:17:33.830Z,98354.56
2023-05-12T00:20:01.519Z,98358.13
2023-05-12T00:22:28.675Z,98365.34
2023-05-12T00:24:55.759Z,98360.34
2023-05-12T00:27:23.025Z,98359.72
2023-05-12T00:29:50.184Z,98351.91
2023-05-12T00:32:17.431Z,98350.94
2023-05-12T00:34:44.494Z,98354.50
2023-05-12T00:37:11.605Z,98359.72
2023-05-12T00:39:38.716Z,98354.41
2023-05-12T00:42:06.053Z,98347.41
2023-05-12T00:44:33.357Z,98347.75
2023-05-12T00:47:00.732Z,98353.69
2023-05-12T00:49:28.074Z,98345.00
2023-05-12T00:51:56.262Z,98351.06
2023-05-12T00:54:23.499Z,98347.75
2023-05-12T00:56:50.753Z,98352.34
2023-05-12T00:59:19.129Z,98358.53
2023-05-12T01:01:49.918Z,98356.03
2023-05-12T01:04:17.446Z,98353.63
2023-05-12T01:06:56.843Z,98349.59
2023-05-12T01:09:24.260Z,98350.31
2023-05-12T01:11:52.384Z,98351.25
2023-05-12T01:14:20.042Z,98345.41
2023-05-12T01:16:53.674Z,98347.06
2023-05-12T01:19:48.436Z,98349.59
2023-05-12T01:22:17.403Z,98349.59
2023-05-12T01:24:54.391Z,98355.41
2023-05-12T01:27:23.797Z,98355.41
2023-05-12T01:29:52.360Z,98344.84
2023-05-12T01:32:20.615Z,98336.09
2023-05-12T01:34:47.890Z,98336.94
2023-05-12T01:37:16.018Z,98331.69
2023-05-12T01:39:43.238Z,98327.19
2023-05-12T01:42:15.918Z,98326.03
2023-05-12T01:44:43.314Z,98316.63
2023-05-12T01:47:11.476Z,98314.97
2023-05-12T01:49:40.576Z,98318.53
2023-05-12T01:52:14.025Z,98328.13
2023-05-12T01:54:41.293Z,98321.75
2023-05-12T01:57:08.660Z,98324.38
2023-05-12T01:59:37.512Z,98321.03
2023-05-12T02:02:06.367Z,98328.13
2023-05-12T02:04:34.783Z,98315.22
2023-05-12T02:07:02.296Z,98317.69
2023-05-12T02:09:30.030Z,98316.75
2023-05-12T02:12:02.576Z,98316.13
2023-05-12T02:14:30.456Z,98316.88
2023-05-12T02:16:59.120Z,98319.47
2023-05-12T02:19:26.374Z,98320.50
2023-05-12T02:21:54.363Z,98316.25
2023-05-12T02:24:21.943Z,98314.47
2023-05-12T02:26:49.425Z,98315.41
2023-05-12T02:29:16.586Z,98311.03
2023-05-12T02:31:43.812Z,98305.94
2023-05-12T02:34:17.675Z,98318.41
2023-05-12T02:36:44.737Z,98307.75
2023-05-12T02:39:12.442Z,98312.84
2023-05-12T02:41:40.063Z,98317.47
2023-05-12T02:44:07.522Z,98317.38
2023-05-12T02:46:35.086Z,98313.19
2023-05-12T02:49:02.261Z,98323.50
2023-05-12T02:51:29.597Z,98321.63
2023-05-12T02:53:56.758Z,98321.75
2023-05-12T02:56:23.892Z,98321.84
2023-05-12T02:58:51.082Z,98326.03
2023-05-12T03:01:18.242Z,98325.69
2023-05-12T03:03:45.645Z,98329.13
2023-05-12T03:06:12.934Z,98323.69
2023-05-12T03:08:40.167Z,98329.84
2023-05-12T03:11:07.352Z,98330.81
2023-05-12T03:13:34.435Z,98334.00
2023-05-12T03:16:01.896Z,98340.91
2023-05-12T03:18:30.422Z,98339.72
2023-05-12T03:20:57.627Z,98340.56
2023-05-12T03:23:25.209Z,98337.72
2023-05-12T03:25:52.416Z,98337.59
2023-05-12T03:28:19.588Z,98346.06
2023-05-12T03:30:46.697Z,98344.16
2023-05-12T03:33:13.865Z,98348.84
2023-05-12T03:35:40.978Z,98345.16
2023-05-12T03:38:08.140Z,98352.66
2023-05-12T03:40:35.359Z,98352.81
2023-05-12T03:43:02.975Z,98347.94
2023-05-12T03:45:30.150Z,98351.63
2023-05-12T03:47:57.231Z,98342.41
2023-05-12T03:50:24.444Z,98351.66
2023-05-12T03:52:56.157Z,98347.75
2023-05-12T03:55:23.328Z,98351.53
2023-05-12T03:57:50.404Z,98345.97
2023-05-12T04:00:18.227Z,98339.78
2023-05-12T04:02:46.620Z,98344.78
2023-05-12T04:05:14.809Z,98346.09
2023-05-12T04:07:42.336Z,98340.66
2023-05-12T04:10:09.631Z,98345.28
2023-05-12T04:12:36.707Z,98351.69
2023-05-12T04:15:04.351Z,98352.38
2023-05-12T04:17:31.585Z,98350.03
2023-05-12T04:19:58.715Z,98347.88
2023-05-12T04:22:26.066Z,98345.47
2023-05-12T04:24:54.021Z,98351.06
2023-05-12T04:27:21.812Z,98353.31
2023-05-12T04:29:49.029Z,98355.59
2023-05-12T04:32:16.337Z,98352.13
2023-05-12T04:34:43.621Z,98352.34
2023-05-12T04:37:10.860Z,98348.53
2023-05-12T04:39:38.036Z,98363.53
2023-05-12T04:42:06.040Z,98355.63
2023-05-12T04:44:34.675Z,98354.81
2023-05-12T04:47:01.899Z,98353.09
2023-05-12T04:49:30.662Z,98349.41
2023-05-12T04:51:57.856Z,98347.47
2023-05-12T04:54:25.068Z,98349.25
2023-05-12T04:56:52.532Z,98356.00
2023-05-12T04:59:19.823Z,98344.25
2023-05-12T05:01:49.398Z,98347.06
2023-05-12T05:04:17.132Z,98347.75
2023-05-12T05:06:44.211Z,98347.91
2023-05-12T05:09:11.392Z,98353.47
2023-05-12T05:11:39.031Z,98357.44
2023-05-12T05:14:06.829Z,98368.44
2023-05-12T05:16:38.081Z,98364.25
2023-05-12T05:19:06.722Z,98369.50
2023-05-12T05:21:39.643Z,98359.09
2023-05-12T05:24:09.078Z,98367.69
2023-05-12T05:26:36.573Z,98369.00
2023-05-12T05:29:05.294Z,98368.16
2023-05-12T05:31:33.319Z,98361.84
2023-05-12T05:34:00.556Z,98374.66
2023-05-12T05:36:29.971Z,98373.03
2023-05-12T05:38:58.558Z,98369.72
2023-05-12T05:41:25.855Z,98384.53
2023-05-12T05:43:53.185Z,98385.84
2023-05-12T05:46:20.320Z,98370.59
2023-05-12T05:48:48.602Z,98380.28
2023-05-12T05:51:16.646Z,98380.59
2023-05-12T05:53:44.013Z,98381.97
2023-05-12T05:56:12.022Z,98386.72
2023-05-12T05:58:39.166Z,98392.34
2023-05-12T06:01:07.485Z,98386.16
2023-05-12T06:03:35.553Z,98389.88
2023-05-12T06:06:03.042Z,98381.16
2023-05-12T06:08:30.289Z,98380.75
2023-05-12T06:10:57.501Z,98384.72
2023-05-12T06:13:24.570Z,98380.69
2023-05-12T06:15:51.661Z,98378.84
2023-05-12T06:18:18.751Z,98384.78
2023-05-12T06:20:46.223Z,98385.63
2023-05-12T06:23:13.490Z,98382.47
2023-05-12T06:25:40.743Z,98384.69
2023-05-12T06:28:08.691Z,98381.13
2023-05-12T06:30:40.618Z,98384.41
2023-05-12T06:33:07.752Z,98380.16
2023-05-12T06:35:34.873Z,98382.59
2023-05-12T06:38:05.958Z,98387.78
2023-05-12T06:40:33.531Z,98389.44
2023-05-12T06:43:00.778Z,98388.13
2023-05-12T06:45:28.000Z,98381.16
2023-05-12T06:47:55.223Z,98389.72
2023-05-12T06:50:22.349Z,98390.25
2023-05-12T06:52:52.666Z,98392.50
2023-05-12T06:55:21.174Z,98389.81
2023-05-12T06:57:48.661Z,98385.97
2023-05-12T07:00:16.234Z,98387.63
2023-05-12T07:02:43.459Z,98381.41
2023-05-12T07:05:10.595Z,98382.66
2023-05-12T07:07:37.766Z,98388.47
2023-05-12T07:10:06.673Z,98380.84
2023-05-12T07:12:33.897Z,98393.31
2023-05-12T07:15:03.282Z,98387.22
2023-05-12T07:17:30.595Z,98392.31
2023-05-12T07:19:57.861Z,98394.22
2023-05-12T07:22:25.180Z,98392.69
2023-05-12T07:24:52.918Z,98390.25
2023-05-12T07:27:20.230Z,98396.88
2023-05-12T07:29:47.336Z,98393.03
2023-05-12T07:32:14.403Z,98388.53
2023-05-12T07:34:41.460Z,98389.75
2023-05-12T07:37:08.494Z,98395.28
2023-05-12T07:39:37.935Z,98406.84
2023-05-12T07:42:05.486Z,98406.94
2023-05-12T07:44:33.645Z,98398.91
2023-05-12T07:47:01.331Z,98392.41
2023-05-12T07:49:28.495Z,98406.63
2023-05-12T07:51:56.331Z,98397.44
2023-05-12T07:54:23.498Z,98408.94
2023-05-12T07:56:50.785Z,98406.78
2023-05-12T07:59:17.909Z,98408.78
2023-05-12T08:01:45.086Z,98415.56
2023-05-12T08:04:12.396Z,98415.06
2023-05-12T08:06:39.970Z,98401.50
2023-05-12T08:09:07.187Z,98410.94
2023-05-12T08:11:34.263Z,98406.44
2023-05-12T08:14:01.594Z,98406.31
2023-05-12T08:16:28.784Z,98421.38
2023-05-12T08:18:56.112Z,98428.97
2023-05-12T08:21:23.230Z,98415.59
2023-05-12T08:23:50.393Z,98420.53
2023-05-12T08:26:17.690Z,98425.50
2023-05-12T08:28:44.984Z,98426.19
2023-05-12T08:31:12.741Z,98418.22
2023-05-12T08:33:40.032Z,98423.03
2023-05-12T08:36:07.348Z,98421.13
2023-05-12T08:38:34.545Z,98420.19
2023-05-12T08:41:01.511Z,98422.00
2023-05-12T08:43:38.567Z,98426.28
2023-05-12T08:46:06.473Z,98432.94
2023-05-12T08:48:35.719Z,98438.53
2023-05-12T08:51:03.477Z,98438.84
2023-05-12T08:53:33.688Z,98424.66
2023-05-12T08:58:40.817Z,98421.16
2023-05-12T09:01:12.366Z,98428.97
2023-05-12T09:03:39.631Z,98431.66
2023-05-12T09:06:07.554Z,98431.59
2023-05-12T09:08:37.698Z,98436.94
2023-05-12T09:11:05.110Z,98417.44
2023-05-12T09:14:00.639Z,98427.38
2023-05-12T09:16:31.423Z,98422.19
2023-05-12T09:19:00.225Z,98422.69
2023-05-12T09:21:28.714Z,98417.53
2023-05-12T09:23:59.626Z,98409.59
2023-05-12T09:26:29.028Z,98422.22
2023-05-12T09:29:08.875Z,98414.25
2023-05-12T09:31:36.315Z,98405.00
2023-05-12T09:34:08.956Z,98414.91
2023-05-12T09:36:36.855Z,98410.41
2023-05-12T09:39:07.266Z,98416.84
2023-05-12T09:41:38.976Z,98404.03
2023-05-12T09:44:07.935Z,98415.78
2023-05-12T10:18:05.886Z,98401.16
2023-05-12T10:20:34.067Z,98408.56
2023-05-12T10:23:02.285Z,98408.91
2023-05-12T10:25:31.037Z,98416.75
2023-05-12T10:27:59.288Z,98400.28
2023-05-12T10:30:26.827Z,98412.03
2023-05-12T10:32:54.484Z,98406.41
2023-05-12T10:35:35.311Z,98407.63
2023-05-12T10:38:16.308Z,98409.13
2023-05-12T10:40:59.446Z,98397.06
2023-05-12T10:43:29.532Z,98395.22
2023-05-12T10:46:15.446Z,98410.22
2023-05-12T10:49:12.576Z,98399.34
2023-05-12T10:51:46.015Z,98400.00
2023-05-12T10:54:20.164Z,98399.31
2023-05-12T10:56:48.347Z,98400.50
2023-05-12T10:59:24.465Z,98390.06
2023-05-12T11:02:04.936Z,98398.31
2023-05-12T11:04:53.462Z,98394.00
2023-05-12T11:07:33.393Z,98401.53
2023-05-12T11:10:02.972Z,98400.81
2023-05-12T11:12:34.182Z,98394.94
2023-05-12T11:15:03.450Z,98392.03
2023-05-12T11:17:30.990Z,98408.25
2023-05-12T11:19:58.838Z,98394.91
2023-05-12T11:22:26.019Z,98397.88
2023-05-12T11:24:53.386Z,98397.75
2023-05-12T11:27:23.311Z,98405.31
2023-05-12T11:29:59.142Z,98403.34
2023-05-12T11:32:26.770Z,98398.19
2023-05-12T11:34:54.115Z,98412.66
2023-05-12T11:37:22.237Z,98400.69
2023-05-12T11:39:49.361Z,98408.41
2023-05-12T11:42:19.804Z,98413.75
2023-05-12T11:44:49.452Z,98409.28
2023-05-12T11:47:19.270Z,98402.31
2023-05-12T11:49:52.897Z,98390.09
2023-05-12T11:52:21.880Z,98396.84
2023-05-12T11:54:58.877Z,98405.78
2023-05-12T11:57:30.604Z,98401.72
2023-05-12T11:59:58.925Z,98408.28
2023-05-12T12:02:26.784Z,98411.53
2023-05-12T12:04:54.381Z,98394.13
2023-05-12T12:07:35.498Z,98395.66
2023-05-12T12:10:13.170Z,98402.03
2023-05-12T12:12:43.718Z,98398.88
2023-05-12T12:15:11.843Z,98382.16
2023-05-12T12:17:40.124Z,98406.84
2023-05-12T12:20:09.414Z,98391.03
2023-05-12T12:22:36.695Z,98398.69
2023-05-12T12:25:04.203Z,98386.00
2023-05-12T12:27:31.498Z,98395.97
2023-05-12T12:29:58.700Z,98376.25
2023-05-12T12:32:25.902Z,98399.00
2023-05-12T12:34:53.558Z,98391.75
2023-05-12T12:37:20.659Z,98397.75
2023-05-12T12:39:48.074Z,98386.56
2023-05-12T12:42:15.851Z,98385.66
2023-05-12T12:44:43.310Z,98393.28
2023-05-12T12:47:10.593Z,98391.00
2023-05-12T12:49:37.826Z,98388.22
2023-05-12T12:52:05.138Z,98399.13
2023-05-12T12:54:32.747Z,98391.44
2023-05-12T12:56:59.823Z,98386.72
2023-05-12T12:59:27.341Z,98390.59
2023-05-12T13:01:54.592Z,98385.03
2023-05-12T13:04:23.129Z,98387.81
2023-05-12T13:06:50.340Z,98395.13
2023-05-12T13:09:19.904Z,98388.06
2023-05-12T13:11:47.982Z,98383.06
2023-05-12T13:14:15.181Z,98382.69
2023-05-12T13:16:42.854Z,98382.25
2023-05-12T13:19:10.185Z,98382.88
2023-05-12T13:21:38.002Z,98378.72
2023-05-12T13:24:05.195Z,98360.63
2023-05-12T13:26:32.276Z,98379.22
2023-05-12T13:28:59.462Z,98375.94
2023-05-12T13:31:27.065Z,98368.91
2023-05-12T13:33:54.252Z,98373.00
2023-05-12T13:36:21.377Z,98364.41
2023-05-12T13:38:48.438Z,98370.66
2023-05-12T13:41:15.987Z,98368.50
2023-05-12T13:43:43.845Z,98375.13
2023-05-12T13:46:11.058Z,98377.03
2023-05-12T13:48:38.258Z,98385.13
2023-05-12T13:51:05.726Z,98391.81
2023-05-12T13:53:33.061Z,98370.59
2023-05-12T13:56:15.765Z,98368.81
2023-05-12T13:58:42.964Z,98381.94
2023-05-12T14:01:10.435Z,98385.53
2023-05-12T14:03:37.869Z,98393.81
2023-05-12T14:06:05.455Z,98391.25
2023-05-12T14:08:32.606Z,98385.41
2023-05-12T14:10:59.970Z,98390.03
2023-05-12T14:13:28.056Z,98391.69
2023-05-12T14:15:55.488Z,98392.75
2023-05-12T14:18:23.059Z,98390.59
2023-05-12T14:20:50.582Z,98383.47
2023-05-12T14:23:17.810Z,98398.53
2023-05-12T14:25:44.971Z,98399.34
2023-05-12T14:28:12.225Z,98404.97
2023-05-12T14:30:39.849Z,98404.16
2023-05-12T14:33:07.163Z,98405.47
2023-05-12T14:35:34.302Z,98401.91
2023-05-12T14:38:04.017Z,98401.69
2023-05-12T14:40:31.149Z,98402.53
2023-05-12T14:42:58.642Z,98402.22
2023-05-12T14:45:26.761Z,98405.00
2023-05-12T14:47:54.819Z,98407.94
2023-05-12T14:50:22.795Z,98407.38
2023-05-12T14:52:50.233Z,98403.63
2023-05-12T14:55:17.657Z,98402.75
2023-05-12T14:57:45.613Z,98392.22
2023-05-12T15:00:15.270Z,98390.63
2023-05-12T15:02:44.147Z,98389.28
2023-05-12T15:05:13.576Z,98394.72
2023-05-12T15:07:40.724Z,98388.88
2023-05-12T15:10:08.404Z,98390.81
2023-05-12T15:12:35.884Z,98382.38
2023-05-12T15:15:05.257Z,98386.25
2023-05-12T15:17:32.963Z,98377.94
2023-05-12T15:20:00.197Z,98382.34
2023-05-12T15:22:31.354Z,98374.84
2023-05-12T15:24:59.669Z,98385.78
2023-05-12T15:27:27.324Z,98382.13
2023-05-12T15:29:54.529Z,98387.31
2023-05-12T15:32:21.760Z,98387.03
2023-05-12T15:34:48.978Z,98378.94
2023-05-12T15:37:16.324Z,98372.41
2023-05-12T15:39:43.988Z,98370.09
2023-05-12T15:42:12.645Z,98365.66
2023-05-12T15:44:41.683Z,98367.72
2023-05-12T15:47:08.829Z,98371.38
2023-05-12T15:49:35.983Z,98366.88
2023-05-12T15:52:03.152Z,98377.13
2023-05-12T15:54:31.086Z,98385.41
2023-05-12T15:56:58.226Z,98378.03
2023-05-12T15:59:26.234Z,98376.19
2023-05-12T16:01:53.432Z,98374.59
2023-05-12T16:04:20.568Z,98367.88
2023-05-12T16:06:47.766Z,98380.94
2023-05-12T16:09:14.874Z,98387.81
2023-05-12T16:11:42.174Z,98382.63
2023-05-12T16:14:09.472Z,98391.44
2023-05-12T16:16:37.613Z,98388.19
2023-05-12T16:19:04.895Z,98382.41
2023-05-12T16:21:32.177Z,98390.44
2023-05-12T16:23:59.298Z,98386.72
2023-05-12T16:26:26.920Z,98386.59
2023-05-12T16:28:54.110Z,98392.69
2023-05-12T16:31:21.854Z,98393.94
2023-05-12T16:33:48.962Z,98396.84
2023-05-12T16:36:17.756Z,98396.72
2023-05-12T16:38:44.977Z,98402.25
2023-05-12T16:41:12.093Z,98397.84
2023-05-12T16:43:39.209Z,98405.03
2023-05-12T16:46:06.318Z,98402.16
2023-05-12T16:48:34.565Z,98409.50
2023-05-12T16:51:07.491Z,98406.66
2023-05-12T16:53:35.191Z,98415.69
2023-05-12T16:56:02.705Z,98417.88
2023-05-12T16:58:33.516Z,98415.06
2023-05-12T17:01:01.479Z,98414.06
2023-05-12T17:03:29.434Z,98414.56
2023-05-12T17:05:56.690Z,98411.34
2023-05-12T17:08:24.759Z,98415.00
2023-05-12T17:10:51.893Z,98422.28
2023-05-12T17:13:19.076Z,98419.03
2023-05-12T17:15:47.100Z,98428.28
2023-05-12T17:18:14.310Z,98430.44
2023-05-12T17:20:41.808Z,98440.97
2023-05-12T17:23:09.343Z,98439.47
2023-05-12T17:25:36.795Z,98443.53
2023-05-12T17:28:04.718Z,98437.91
2023-05-12T17:30:32.747Z,98429.66
2023-05-12T17:33:00.699Z,98437.69
2023-05-12T17:35:27.828Z,98442.63
2023-05-12T17:37:55.690Z,98446.28
2023-05-12T17:40:23.196Z,98455.09
2023-05-12T17:42:50.531Z,98442.78
2023-05-12T17:45:18.582Z,98451.78
2023-05-12T17:47:46.286Z,98448.28
2023-05-12T17:50:15.125Z,98455.16
2023-05-12T17:52:43.652Z,98453.44
2023-05-12T17:55:10.974Z,98457.59
2023-05-12T17:57:38.301Z,98452.88
2023-05-12T18:00:10.326Z,98458.63
2023-05-12T18:02:44.801Z,98457.41
2023-05-12T18:05:12.596Z,98454.63
2023-05-12T18:07:39.992Z,98458.19
2023-05-12T18:10:08.967Z,98451.13
2023-05-12T18:12:37.074Z,98447.59
2023-05-12T18:15:05.488Z,98458.03
2023-05-12T18:17:32.877Z,98456.06
2023-05-12T18:20:00.437Z,98454.84
2023-05-12T18:22:27.596Z,98458.19
2023-05-12T18:24:55.181Z,98455.91
2023-05-12T18:27:22.239Z,98454.75
2023-05-12T18:29:49.385Z,98463.59
2023-05-12T18:32:17.042Z,98465.63
2023-05-12T18:34:45.615Z,98469.47
2023-05-12T18:37:15.734Z,98472.31
2023-05-12T18:39:43.398Z,98476.25
2023-05-12T18:42:11.316Z,98477.28
2023-05-12T18:44:41.308Z,98481.22
2023-05-12T18:47:09.457Z,98469.25
2023-05-12T18:49:37.711Z,98471.25
2023-05-12T18:52:05.109Z,98467.84
2023-05-12T18:54:32.174Z,98459.34
2023-05-12T18:56:59.324Z,98467.72
2023-05-12T18:59:26.996Z,98468.16
2023-05-12T19:01:54.207Z,98471.13
2023-05-12T19:04:22.110Z,98473.78
2023-05-12T19:06:49.426Z,98471.41
2023-05-12T19:09:16.542Z,98470.72
2023-05-12T19:11:44.415Z,98468.78
2023-05-12T19:14:12.048Z,98469.88
2023-05-12T19:16:40.251Z,98467.53
2023-05-12T19:19:07.585Z,98459.63
2023-05-12T19:21:35.027Z,98459.38
2023-05-12T19:24:02.262Z,98454.66
2023-05-12T19:26:29.335Z,98458.94
2023-05-12T19:28:56.415Z,98452.44
2023-05-12T19:31:23.570Z,98452.56
2023-05-12T19:33:52.306Z,98445.66
2023-05-12T19:36:19.445Z,98445.09
2023-05-12T19:38:46.722Z,98439.84
2023-05-12T19:41:13.787Z,98431.81
2023-05-12T19:43:41.260Z,98433.25
2023-05-12T19:46:08.777Z,98430.75
2023-05-12T19:48:36.188Z,98427.63
2023-05-12T19:51:03.568Z,98431.34
2023-05-12T19:53:30.852Z,98424.66
2023-05-12T19:55:58.120Z,98422.38
2023-05-12T19:58:26.729Z,98422.31
2023-05-12T20:00:54.954Z,98424.47
2023-05-12T20:03:22.277Z,98429.06
2023-05-12T20:05:49.612Z,98432.59
2023-05-12T20:08:16.687Z,98435.38
2023-05-12T20:10:43.762Z,98432.44
2023-05-12T20:13:11.871Z,98424.44
2023-05-12T20:15:40.178Z,98433.72
2023-05-12T20:18:07.344Z,98428.63
2023-05-12T20:20:34.433Z,98431.03
2023-05-12T20:23:01.663Z,98432.28
2023-05-12T20:25:31.842Z,98439.59
2023-05-12T20:27:59.424Z,98430.13
2023-05-12T20:30:26.903Z,98429.16
2023-05-12T20:32:54.101Z,98433.22
2023-05-12T20:35:21.617Z,98434.25
2023-05-12T20:37:49.040Z,98433.69
2023-05-12T20:40:16.273Z,98431.56
2023-05-12T20:42:48.587Z,98435.72
2023-05-12T20:45:16.497Z,98438.94
2023-05-12T20:47:43.630Z,98437.28
2023-05-12T20:50:12.597Z,98440.13
2023-05-12T20:52:42.585Z,98445.03
2023-05-12T20:55:10.258Z,98438.72
2023-05-12T20:57:37.977Z,98435.63
2023-05-12T21:00:05.655Z,98437.34
2023-05-12T21:02:32.778Z,98443.75
2023-05-12T21:04:59.914Z,98440.53
2023-05-12T21:07:26.996Z,98438.66
2023-05-12T21:09:54.099Z,98441.13
2023-05-12T21:12:21.188Z,98448.84
2023-05-12T21:14:48.248Z,98447.91
2023-05-12T21:17:16.563Z,98445.06
2023-05-12T21:19:44.250Z,98445.75
2023-05-12T21:22:11.563Z,98443.88
2023-05-12T21:24:39.620Z,98442.56
2023-05-12T21:27:08.409Z,98436.34
2023-05-12T21:29:36.574Z,98433.25
2023-05-12T21:32:03.934Z,98433.22
2023-05-12T21:34:33.688Z,98433.56
2023-05-12T21:37:01.033Z,98428.56
2023-05-12T21:39:28.430Z,98432.28
2023-05-12T21:41:55.609Z,98430.59
2023-05-12T21:44:22.694Z,98432.97
2023-05-12T21:46:49.923Z,98430.13
2023-05-12T21:49:17.128Z,98427.53
2023-05-12T21:51:44.235Z,98434.56
2023-05-12T21:54:12.491Z,98434.78
2023-05-12T21:56:39.600Z,98433.97
2023-05-12T21:59:06.877Z,98437.41
2023-05-12T22:01:34.029Z,98431.31
2023-05-12T22:04:01.227Z,98423.69
2023-05-12T22:06:28.378Z,98434.03
2023-05-12T22:08:55.826Z,98427.66
2023-05-12T22:11:23.702Z,98425.31
2023-05-12T22:13:51.279Z,98426.88
2023-05-12T22:16:23.608Z,98415.06
2023-05-12T22:18:53.189Z,98414.00
2023-05-12T22:21:20.632Z,98417.16
2023-05-12T22:23:47.727Z,98412.38
2023-05-12T22:26:15.868Z,98413.25
2023-05-12T22:28:43.037Z,98403.25
2023-05-12T22:31:10.163Z,98393.81
2023-05-12T22:33:37.290Z,98399.34
2023-05-12T22:36:04.568Z,98402.53
2023-05-12T22:38:31.760Z,98390.38
2023-05-12T22:40:59.031Z,98392.63
2023-05-12T22:43:26.479Z,98391.19
2023-05-12T22:45:55.944Z,98393.81
2023-05-12T22:48:23.324Z,98398.22
2023-05-12T22:50:53.988Z,98389.38
2023-05-12T22:53:21.127Z,98401.28
2023-05-12T22:55:48.452Z,98395.63
2023-05-12T22:58:16.251Z,98398.53
2023-05-12T23:00:43.357Z,98389.00
2023-05-12T23:03:10.512Z,98389.88
2023-05-12T23:05:37.700Z,98389.97
2023-05-12T23:08:04.817Z,98390.78
2023-05-12T23:10:31.919Z,98390.38
2023-05-12T23:12:59.080Z,98386.66
2023-05-12T23:15:26.217Z,98393.91
2023-05-12T23:17:53.369Z,98384.94
2023-05-12T23:20:21.261Z,98382.78
2023-05-12T23:22:48.545Z,98386.50
2023-05-12T23:25:15.800Z,98386.44
2023-05-12T23:27:42.944Z,98385.41
2023-05-12T23:30:10.345Z,98379.56
2023-05-12T23:32:37.510Z,98373.56
2023-05-12T23:35:05.020Z,98378.31
2023-05-12T23:37:32.249Z,98378.13
2023-05-12T23:39:59.491Z,98381.38
2023-05-12T23:42:26.610Z,98373.38
2023-05-12T23:44:53.821Z,98378.91
2023-05-12T23:47:21.008Z,98378.69
2023-05-12T23:49:48.088Z,98381.81
2023-05-12T23:52:15.127Z,98384.91
2023-05-12T23:54:44.421Z,98391.75
2023-05-12T23:57:11.547Z,98387.19
2023-05-12T23:59:39.037Z,98386.53
